createdAt,value
2023-03-12T00:00:53.017Z,66.68
2023-03-12T00:03:19.528Z,67.01
2023-03-12T00:05:46.123Z,65.54
2023-03-12T00:08:13.316Z,66.43
2023-03-12T00:10:40.819Z,65.76
2023-03-12T00:13:08.183Z,65.32
2023-03-12T00:15:39.345Z,64.88
2023-03-12T00:18:06.174Z,64.98
2023-03-12T00:20:33.031Z,64.09
2023-03-12T00:22:59.667Z,64.59
2023-03-12T00:25:26.322Z,64.49
2023-03-12T00:27:52.894Z,64.15
2023-03-12T00:30:19.412Z,64.93
2023-03-12T00:32:46.076Z,65.35
2023-03-12T00:35:12.716Z,64.58
2023-03-12T00:37:39.556Z,65.01
2023-03-12T00:40:08.564Z,64.71
2023-03-12T00:42:35.112Z,64.26
2023-03-12T00:45:01.645Z,64.04
2023-03-12T00:47:28.250Z,64.93
2023-03-12T00:49:54.852Z,65.29
2023-03-12T00:52:21.376Z,66.02
2023-03-12T00:54:47.927Z,66.11
2023-03-12T00:57:14.446Z,65.04
2023-03-12T00:59:42.277Z,64.71
2023-03-12T01:02:09.249Z,64.69
2023-03-12T01:04:37.329Z,65.26
2023-03-12T01:07:03.949Z,65.64
2023-03-12T01:09:30.576Z,64.62
2023-03-12T01:11:57.111Z,65.32
2023-03-12T01:14:24.307Z,65.35
2023-03-12T01:16:52.570Z,65.78
2023-03-12T01:19:19.373Z,65.18
2023-03-12T01:21:45.947Z,65.12
2023-03-12T01:24:12.563Z,66.38
2023-03-12T01:26:39.155Z,65.67
2023-03-12T01:29:06.079Z,65.16
2023-03-12T01:31:32.753Z,65.18
2023-03-12T01:33:59.263Z,63.98
2023-03-12T01:36:28.814Z,65.08
2023-03-12T01:38:58.182Z,64.11
2023-03-12T01:41:27.117Z,64.77
2023-03-12T01:43:53.982Z,65.20
2023-03-12T01:46:28.506Z,64.41
2023-03-12T01:49:01.116Z,63.98
2023-03-12T01:51:32.316Z,65.05
2023-03-12T01:54:02.722Z,65.29
2023-03-12T01:56:32.936Z,63.86
2023-03-12T01:59:03.191Z,64.42
2023-03-12T02:01:33.239Z,64.00
2023-03-12T02:04:02.013Z,64.73
2023-03-12T02:06:43.861Z,64.73
2023-03-12T02:09:12.674Z,64.68
2023-03-12T02:11:39.222Z,64.23
2023-03-12T02:14:05.788Z,64.35
2023-03-12T02:16:33.326Z,64.84
2023-03-12T02:19:04.819Z,64.07
2023-03-12T02:21:34.116Z,64.49
2023-03-12T02:24:15.527Z,64.81
2023-03-12T02:26:42.552Z,64.01
2023-03-12T02:29:10.430Z,64.37
2023-03-12T02:31:52.784Z,64.53
2023-03-12T02:34:19.422Z,64.43
2023-03-12T02:36:45.967Z,64.82
2023-03-12T02:39:13.067Z,64.66
2023-03-12T02:41:43.475Z,64.54
2023-03-12T02:44:22.304Z,65.06
2023-03-12T02:46:51.724Z,65.24
2023-03-12T02:49:19.798Z,65.34
2023-03-12T02:51:47.452Z,65.07
2023-03-12T02:54:15.408Z,66.23
2023-03-12T02:56:42.112Z,65.74
2023-03-12T02:59:09.926Z,65.69
2023-03-12T03:01:37.241Z,64.65
2023-03-12T03:04:05.917Z,65.04
2023-03-12T03:06:32.997Z,65.58
2023-03-12T03:08:59.858Z,65.01
2023-03-12T03:11:26.503Z,65.25
2023-03-12T03:13:54.470Z,65.61
2023-03-12T03:16:22.009Z,64.91
2023-03-12T03:18:48.984Z,65.83
2023-03-12T03:21:17.789Z,65.25
2023-03-12T03:23:45.704Z,65.26
2023-03-12T03:26:12.435Z,64.53
2023-03-12T03:28:39.308Z,64.36
2023-03-12T03:31:06.283Z,64.51
2023-03-12T03:33:35.147Z,65.68
2023-03-12T03:36:03.092Z,65.89
2023-03-12T03:38:33.550Z,64.63
2023-03-12T03:41:00.185Z,65.23
2023-03-12T03:43:27.476Z,65.32
2023-03-12T03:46:03.043Z,64.65
2023-03-12T03:48:29.758Z,65.03
2023-03-12T03:51:01.603Z,65.09
2023-03-12T03:53:28.512Z,65.06
2023-03-12T03:55:55.110Z,65.91
2023-03-12T03:58:21.683Z,65.91
2023-03-12T04:00:48.257Z,66.01
2023-03-12T04:03:14.902Z,65.03
2023-03-12T04:05:45.456Z,65.29
2023-03-12T04:08:13.305Z,64.36
2023-03-12T04:10:40.540Z,65.02
2023-03-12T04:13:08.532Z,64.87
2023-03-12T04:15:35.003Z,65.63
2023-03-12T04:18:01.807Z,64.54
2023-03-12T04:20:28.368Z,65.30
2023-03-12T04:22:55.095Z,64.90
2023-03-12T04:25:21.655Z,64.69
2023-03-12T04:27:48.239Z,65.53
2023-03-12T04:30:14.922Z,64.89
2023-03-12T04:32:41.565Z,64.89
2023-03-12T04:35:08.373Z,65.83
2023-03-12T04:37:34.883Z,65.44
2023-03-12T04:40:04.853Z,65.40
2023-03-12T04:42:31.414Z,66.11
2023-03-12T04:44:57.965Z,65.99
2023-03-12T04:47:24.496Z,65.81
2023-03-12T04:49:51.041Z,65.66
2023-03-12T04:52:17.788Z,64.99
2023-03-12T04:54:46.802Z,65.37
2023-03-12T04:57:14.615Z,65.51
2023-03-12T04:59:41.188Z,64.89
2023-03-12T05:02:07.905Z,65.37
2023-03-12T05:04:34.486Z,65.93
2023-03-12T05:07:01.036Z,66.12
2023-03-12T05:09:27.775Z,65.72
2023-03-12T05:11:54.320Z,65.95
2023-03-12T05:14:21.165Z,65.43
2023-03-12T05:16:47.803Z,65.75
2023-03-12T05:19:15.186Z,65.34
2023-03-12T05:21:42.533Z,65.66
2023-03-12T05:24:10.571Z,65.52
2023-03-12T05:26:37.635Z,65.55
2023-03-12T05:29:05.504Z,65.22
2023-03-12T05:31:35.326Z,65.24
2023-03-12T05:34:03.870Z,66.47
2023-03-12T05:36:30.467Z,65.94
2023-03-12T05:38:57.384Z,65.92
2023-03-12T05:41:29.316Z,66.91
2023-03-12T05:43:57.403Z,66.45
2023-03-12T05:46:26.491Z,66.17
2023-03-12T05:48:53.478Z,67.26
2023-03-12T05:51:20.664Z,65.61
2023-03-12T05:53:47.686Z,64.63
2023-03-12T05:56:16.508Z,64.40
2023-03-12T05:58:43.155Z,64.61
2023-03-12T06:01:19.934Z,64.96
2023-03-12T06:03:47.088Z,65.42
2023-03-12T06:06:14.226Z,65.18
2023-03-12T06:08:41.650Z,64.78
2023-03-12T06:11:08.359Z,64.84
2023-03-12T06:13:34.986Z,65.61
2023-03-12T06:16:12.146Z,65.03
2023-03-12T06:18:38.779Z,64.19
2023-03-12T06:21:16.820Z,63.16
2023-03-12T06:23:46.374Z,62.71
2023-03-12T06:26:13.588Z,61.56
2023-03-12T06:28:40.397Z,59.45
2023-03-12T06:31:07.243Z,59.52
2023-03-12T06:33:34.569Z,58.66
2023-03-12T06:36:02.755Z,58.00
2023-03-12T06:38:29.697Z,57.53
2023-03-12T06:41:08.773Z,57.37
2023-03-12T06:43:37.631Z,56.29
2023-03-12T06:46:06.443Z,55.82
2023-03-12T06:48:36.524Z,56.05
2023-03-12T06:51:04.359Z,54.89
2023-03-12T06:53:31.351Z,54.98
2023-03-12T06:55:58.596Z,55.33
2023-03-12T06:58:25.335Z,55.57
2023-03-12T07:00:53.320Z,55.49
2023-03-12T07:03:20.256Z,55.40
2023-03-12T07:05:48.259Z,53.72
2023-03-12T07:08:14.893Z,54.10
2023-03-12T07:10:41.814Z,54.00
2023-03-12T07:13:11.161Z,53.76
2023-03-12T07:15:38.093Z,54.16
2023-03-12T07:18:06.514Z,52.85
2023-03-12T07:20:35.949Z,53.24
2023-03-12T07:23:02.463Z,53.21
2023-03-12T07:25:29.093Z,52.82
2023-03-12T07:27:55.703Z,52.32
2023-03-12T07:30:22.570Z,53.38
2023-03-12T07:32:49.130Z,53.24
2023-03-12T07:35:15.858Z,52.85
2023-03-12T07:37:42.435Z,54.82
2023-03-12T07:40:10.699Z,55.43
2023-03-12T07:42:37.317Z,52.68
2023-03-12T07:45:04.494Z,52.70
2023-03-12T07:47:31.274Z,52.66
2023-03-12T07:49:57.917Z,52.16
2023-03-12T07:52:24.584Z,52.25
2023-03-12T07:54:52.871Z,51.04
2023-03-12T07:57:19.821Z,51.13
2023-03-12T07:59:47.281Z,53.29
2023-03-12T08:02:14.720Z,51.49
2023-03-12T08:04:41.548Z,52.44
2023-03-12T08:07:09.398Z,51.25
2023-03-12T08:09:38.741Z,50.14
2023-03-12T08:12:07.154Z,50.25
2023-03-12T08:14:34.133Z,49.45
2023-03-12T08:17:01.307Z,49.43
2023-03-12T08:19:28.145Z,49.30
2023-03-12T08:21:55.131Z,49.11
2023-03-12T08:24:22.592Z,49.74
2023-03-12T08:26:49.128Z,50.50
2023-03-12T08:29:16.711Z,50.13
2023-03-12T08:31:57.535Z,48.93
2023-03-12T08:34:29.868Z,49.48
2023-03-12T08:36:56.683Z,47.26
2023-03-12T08:39:23.193Z,47.33
2023-03-12T08:41:49.785Z,48.01
2023-03-12T08:44:16.412Z,47.72
2023-03-12T08:46:42.961Z,47.89
2023-03-12T08:49:09.516Z,48.10
2023-03-12T08:51:36.051Z,48.53
2023-03-12T08:54:02.535Z,47.67
2023-03-12T08:56:29.018Z,47.85
2023-03-12T08:58:55.565Z,47.85
2023-03-12T09:01:22.075Z,48.31
2023-03-12T09:03:51.043Z,47.99
2023-03-12T09:06:19.447Z,47.03
2023-03-12T09:08:47.050Z,47.91
2023-03-12T09:11:15.551Z,47.77
2023-03-12T09:14:02.735Z,47.22
2023-03-12T09:16:29.937Z,47.89
2023-03-12T09:18:56.521Z,47.39
2023-03-12T09:21:23.114Z,47.55
2023-03-12T09:23:49.672Z,47.28
2023-03-12T09:26:16.616Z,47.58
2023-03-12T09:28:44.898Z,47.53
2023-03-12T09:31:12.483Z,47.67
2023-03-12T09:33:40.899Z,47.50
2023-03-12T09:36:07.678Z,46.90
2023-03-12T09:38:35.555Z,47.50
2023-03-12T09:41:06.173Z,47.08
2023-03-12T09:43:58.389Z,46.90
2023-03-12T09:46:33.294Z,50.04
2023-03-12T09:49:02.009Z,48.34
2023-03-12T09:51:46.124Z,49.61
2023-03-12T09:54:26.604Z,49.29
2023-03-12T09:56:58.283Z,49.43
2023-03-12T09:59:24.886Z,49.28
2023-03-12T10:01:57.217Z,48.39
2023-03-12T10:04:58.093Z,48.73
2023-03-12T10:07:35.019Z,46.67
2023-03-12T10:10:22.203Z,48.57
2023-03-12T10:13:26.148Z,48.75
2023-03-12T10:16:29.862Z,48.79
2023-03-12T10:19:35.502Z,48.44
2023-03-12T10:22:36.166Z,49.69
2023-03-12T10:25:14.869Z,49.40
2023-03-12T10:27:41.960Z,46.85
2023-03-12T10:30:20.113Z,45.98
2023-03-12T10:32:50.827Z,47.48
2023-03-12T10:35:21.978Z,45.80
2023-03-12T10:37:58.160Z,43.31
2023-03-12T10:40:28.324Z,45.13
2023-03-12T10:42:55.169Z,43.46
2023-03-12T10:45:39.679Z,44.08
2023-03-12T10:48:09.996Z,44.30
2023-03-12T10:50:39.012Z,43.17
2023-03-12T10:53:32.805Z,45.88
2023-03-12T10:56:01.246Z,45.13
2023-03-12T10:58:40.757Z,45.30
2023-03-12T11:01:19.357Z,44.77
2023-03-12T11:03:46.339Z,42.60
2023-03-12T11:06:29.564Z,42.94
2023-03-12T11:09:25.584Z,44.46
2023-03-12T11:11:52.162Z,44.38
2023-03-12T11:14:25.037Z,43.54
2023-03-12T11:16:53.084Z,43.13
2023-03-12T11:19:32.755Z,42.73
2023-03-12T11:22:02.246Z,42.95
2023-03-12T11:24:29.776Z,42.02
2023-03-12T11:27:22.049Z,44.26
2023-03-12T11:29:50.672Z,44.34
2023-03-12T11:32:34.579Z,42.38
2023-03-12T11:35:02.261Z,41.60
2023-03-12T11:37:56.975Z,39.80
2023-03-12T11:40:38.866Z,40.20
2023-03-12T11:43:42.156Z,42.57
2023-03-12T11:46:21.468Z,41.64
2023-03-12T11:49:06.873Z,40.88
2023-03-12T11:52:09.438Z,40.25
2023-03-12T11:54:45.088Z,39.50
2023-03-12T11:57:35.950Z,40.90
2023-03-12T12:00:18.808Z,41.21
2023-03-12T12:02:48.230Z,40.78
2023-03-12T12:05:56.931Z,41.56
2023-03-12T12:08:32.777Z,40.52
2023-03-12T12:11:22.448Z,40.75
2023-03-12T12:13:48.938Z,38.95
2023-03-12T12:16:22.835Z,38.83
2023-03-12T12:19:18.395Z,38.97
2023-03-12T12:21:55.532Z,39.47
2023-03-12T12:25:03.226Z,39.24
2023-03-12T12:27:36.927Z,39.79
2023-03-12T12:30:11.582Z,40.50
2023-03-12T12:32:48.325Z,38.14
2023-03-12T12:35:35.865Z,37.17
2023-03-12T12:38:10.387Z,39.66
2023-03-12T12:40:44.689Z,39.82
2023-03-12T12:43:32.674Z,39.81
2023-03-12T12:46:10.443Z,40.91
2023-03-12T12:48:43.416Z,39.90
2023-03-12T12:51:11.688Z,40.90
2023-03-12T12:53:48.418Z,38.16
2023-03-12T12:56:21.903Z,37.57
2023-03-12T12:58:54.607Z,38.48
2023-03-12T13:01:21.481Z,37.22
2023-03-12T13:03:49.477Z,36.21
2023-03-12T13:06:16.214Z,35.53
2023-03-12T13:08:43.117Z,33.47
2023-03-12T13:11:20.257Z,32.63
2023-03-12T13:14:02.650Z,33.60
2023-03-12T13:16:45.567Z,34.59
2023-03-12T13:19:15.069Z,34.15
2023-03-12T13:22:11.129Z,33.16
2023-03-12T13:24:51.676Z,33.69
2023-03-12T13:27:23.990Z,34.31
2023-03-12T13:29:56.872Z,33.91
2023-03-12T13:32:35.354Z,33.58
2023-03-12T13:35:27.696Z,30.83
2023-03-12T13:37:54.167Z,32.89
2023-03-12T13:40:29.523Z,33.81
2023-03-12T13:43:08.240Z,32.51
2023-03-12T13:45:43.041Z,32.63
2023-03-12T13:48:19.888Z,32.72
2023-03-12T13:50:53.796Z,31.50
2023-03-12T13:53:33.636Z,30.87
2023-03-12T13:56:16.726Z,31.92
2023-03-12T13:59:04.988Z,30.20
2023-03-12T14:01:42.996Z,31.68
2023-03-12T14:04:25.298Z,30.73
2023-03-12T14:07:04.079Z,29.92
2023-03-12T14:09:49.123Z,30.30
2023-03-12T14:12:34.268Z,28.59
2023-03-12T14:15:27.833Z,28.88
2023-03-12T14:17:58.456Z,30.03
2023-03-12T14:20:25.226Z,27.99
2023-03-12T14:22:59.403Z,29.56
2023-03-12T14:25:36.600Z,30.11
2023-03-12T14:28:10.958Z,29.96
2023-03-12T14:30:44.085Z,28.08
2023-03-12T14:33:14.461Z,28.39
2023-03-12T14:35:47.656Z,29.27
2023-03-12T14:38:30.230Z,28.72
2023-03-12T14:41:30.190Z,27.78
2023-03-12T14:44:06.650Z,28.10
2023-03-12T14:46:33.376Z,29.00
2023-03-12T14:49:00.049Z,29.11
2023-03-12T14:51:29.844Z,31.11
2023-03-12T14:54:02.067Z,30.30
2023-03-12T14:56:35.386Z,30.04
2023-03-12T14:59:22.421Z,30.88
2023-03-12T15:01:49.039Z,30.25
2023-03-12T15:04:22.476Z,30.10
2023-03-12T15:06:52.608Z,29.46
2023-03-12T15:09:25.836Z,31.32
2023-03-12T15:12:01.698Z,31.16
2023-03-12T15:14:33.909Z,31.53
2023-03-12T15:17:00.998Z,31.88
2023-03-12T15:19:35.334Z,31.15
2023-03-12T15:22:05.682Z,31.35
2023-03-12T15:24:39.132Z,30.86
2023-03-12T15:27:24.467Z,31.04
2023-03-12T15:29:51.293Z,30.73
2023-03-12T15:32:20.758Z,31.42
2023-03-12T15:34:48.139Z,30.58
2023-03-12T15:37:24.757Z,31.64
2023-03-12T15:39:53.283Z,31.38
2023-03-12T15:42:24.086Z,31.71
2023-03-12T15:45:05.084Z,31.21
2023-03-12T15:47:39.190Z,31.41
2023-03-12T15:50:31.409Z,31.04
2023-03-12T15:53:06.359Z,31.27
2023-03-12T15:55:34.490Z,29.85
2023-03-12T15:58:02.095Z,30.43
2023-03-12T16:00:32.852Z,31.18
2023-03-12T16:03:04.112Z,31.57
2023-03-12T16:05:37.512Z,31.02
2023-03-12T16:08:16.135Z,32.00
2023-03-12T16:10:42.948Z,31.50
2023-03-12T16:13:15.019Z,31.74
2023-03-12T16:15:42.312Z,31.57
2023-03-12T16:18:14.842Z,32.56
2023-03-12T16:20:42.000Z,32.69
2023-03-12T16:23:08.584Z,31.46
2023-03-12T16:25:35.984Z,31.63
2023-03-12T16:28:05.479Z,31.61
2023-03-12T16:30:34.749Z,32.02
2023-03-12T16:33:04.957Z,32.09
2023-03-12T16:35:33.384Z,32.38
2023-03-12T16:38:01.238Z,32.64
2023-03-12T16:40:35.250Z,32.74
2023-03-12T16:43:07.198Z,32.48
2023-03-12T16:45:36.489Z,32.77
2023-03-12T16:48:06.026Z,33.25
2023-03-12T16:50:32.612Z,33.63
2023-03-12T16:52:59.761Z,33.66
2023-03-12T16:55:29.679Z,32.58
2023-03-12T16:58:00.138Z,32.41
2023-03-12T17:00:33.091Z,33.01
2023-03-12T17:03:00.752Z,33.43
2023-03-12T17:05:29.600Z,32.68
2023-03-12T17:07:58.204Z,32.57
2023-03-12T17:10:26.235Z,32.53
2023-03-12T17:12:54.217Z,33.55
2023-03-12T17:15:26.632Z,34.08
2023-03-12T17:17:55.753Z,34.68
2023-03-12T17:20:23.916Z,34.31
2023-03-12T17:22:50.513Z,33.19
2023-03-12T17:25:26.679Z,32.82
2023-03-12T17:27:53.978Z,32.33
2023-03-12T17:30:22.113Z,33.55
2023-03-12T17:32:50.481Z,33.47
2023-03-12T17:35:18.475Z,33.51
2023-03-12T17:37:45.466Z,33.21
2023-03-12T17:40:12.556Z,33.42
2023-03-12T17:42:39.152Z,33.03
2023-03-12T17:45:08.020Z,33.33
2023-03-12T17:47:35.578Z,33.04
2023-03-12T17:50:03.074Z,33.18
2023-03-12T17:52:31.817Z,34.05
2023-03-12T17:54:58.557Z,33.65
2023-03-12T17:57:25.083Z,33.10
2023-03-12T17:59:51.868Z,33.52
2023-03-12T18:02:18.512Z,33.66
2023-03-12T18:04:45.212Z,33.53
2023-03-12T18:07:12.704Z,33.79
2023-03-12T18:09:39.231Z,33.63
2023-03-12T18:12:06.191Z,33.94
2023-03-12T18:14:32.768Z,33.80
2023-03-12T18:16:59.508Z,34.00
2023-03-12T18:19:27.241Z,33.35
2023-03-12T18:21:53.901Z,33.77
2023-03-12T18:24:20.536Z,33.43
2023-03-12T18:26:49.524Z,33.78
2023-03-12T18:29:16.051Z,34.62
2023-03-12T18:31:45.175Z,34.32
2023-03-12T18:34:11.684Z,34.51
2023-03-12T18:36:38.216Z,34.59
2023-03-12T18:39:06.569Z,34.64
2023-03-12T18:41:33.445Z,34.21
2023-03-12T18:44:00.682Z,35.22
2023-03-12T18:46:28.252Z,34.88
2023-03-12T18:48:54.911Z,34.55
2023-03-12T18:51:21.534Z,34.94
2023-03-12T18:53:50.413Z,35.06
2023-03-12T18:56:16.958Z,35.45
2023-03-12T18:58:43.482Z,35.04
2023-03-12T19:01:10.798Z,35.00
2023-03-12T19:03:37.584Z,35.84
2023-03-12T19:06:09.273Z,36.16
2023-03-12T19:08:39.657Z,35.86
2023-03-12T19:11:09.676Z,36.08
2023-03-12T19:13:36.630Z,36.12
2023-03-12T19:16:06.968Z,36.13
2023-03-12T19:18:33.567Z,36.84
2023-03-12T19:21:00.138Z,36.82
2023-03-12T19:23:26.859Z,36.74
2023-03-12T19:25:53.330Z,36.20
2023-03-12T19:28:19.942Z,36.58
2023-03-12T19:30:49.208Z,36.84
2023-03-12T19:33:15.858Z,37.07
2023-03-12T19:35:43.009Z,36.78
2023-03-12T19:38:09.681Z,36.55
2023-03-12T19:40:36.228Z,37.15
2023-03-12T19:43:03.073Z,36.84
2023-03-12T19:45:29.780Z,37.96
2023-03-12T19:47:56.412Z,37.28
2023-03-12T19:50:23.881Z,37.12
2023-03-12T19:52:50.474Z,37.73
2023-03-12T19:55:17.090Z,37.87
2023-03-12T19:57:43.669Z,37.67
2023-03-12T20:00:12.266Z,37.71
2023-03-12T20:02:39.793Z,37.12
2023-03-12T20:05:07.153Z,37.66
2023-03-12T20:07:34.088Z,38.24
2023-03-12T20:10:00.780Z,38.10
2023-03-12T20:12:27.363Z,37.91
2023-03-12T20:14:53.961Z,38.23
2023-03-12T20:17:20.529Z,38.66
2023-03-12T20:19:47.072Z,39.36
2023-03-12T20:22:13.624Z,39.68
2023-03-12T20:24:40.703Z,39.93
2023-03-12T20:27:07.287Z,40.23
2023-03-12T20:29:33.887Z,40.67
2023-03-12T20:32:00.538Z,40.24
2023-03-12T20:34:27.195Z,40.46
2023-03-12T20:36:53.754Z,40.90
2023-03-12T20:39:20.330Z,41.55
2023-03-12T20:41:48.668Z,41.60
2023-03-12T20:44:15.253Z,41.25
2023-03-12T20:46:41.793Z,41.08
2023-03-12T20:49:08.325Z,41.19
2023-03-12T20:51:35.235Z,42.06
2023-03-12T20:54:01.722Z,41.93
2023-03-12T20:56:28.260Z,42.42
2023-03-12T20:58:54.924Z,43.02
2023-03-12T21:01:21.486Z,42.81
2023-03-12T21:03:48.057Z,43.08
2023-03-12T21:06:14.709Z,44.06
2023-03-12T21:08:41.233Z,44.49
2023-03-12T21:11:08.555Z,44.56
2023-03-12T21:13:36.284Z,45.20
2023-03-12T21:16:05.496Z,45.20
2023-03-12T21:18:32.259Z,44.98
2023-03-12T21:21:03.801Z,45.24
2023-03-12T21:23:31.396Z,45.32
2023-03-12T21:26:00.227Z,45.46
2023-03-12T21:28:28.010Z,45.85
2023-03-12T21:30:55.308Z,45.89
2023-03-12T21:33:21.975Z,46.16
2023-03-12T21:35:48.659Z,46.43
2023-03-12T21:38:15.262Z,46.61
2023-03-12T21:40:41.740Z,46.78
2023-03-12T21:43:08.346Z,46.96
2023-03-12T21:45:34.901Z,46.70
2023-03-12T21:48:01.459Z,47.41
2023-03-12T21:50:28.038Z,47.33
2023-03-12T21:52:54.617Z,48.13
2023-03-12T21:55:21.096Z,47.87
2023-03-12T21:57:47.611Z,48.49
2023-03-12T22:00:16.888Z,48.86
2023-03-12T22:02:44.929Z,48.77
2023-03-12T22:05:12.143Z,48.63
2023-03-12T22:07:39.023Z,48.53
2023-03-12T22:10:07.432Z,48.76
2023-03-12T22:12:34.025Z,48.53
2023-03-12T22:15:00.718Z,48.73
2023-03-12T22:17:27.840Z,49.71
2023-03-12T22:19:54.668Z,50.25
2023-03-12T22:22:21.214Z,47.90
2023-03-12T22:24:47.721Z,47.60
2023-03-12T22:27:14.266Z,47.42
2023-03-12T22:29:40.865Z,48.30
2023-03-12T22:32:07.456Z,49.11
2023-03-12T22:34:35.136Z,50.64
2023-03-12T22:37:01.670Z,52.53
2023-03-12T22:39:28.176Z,52.55
2023-03-12T22:41:54.788Z,53.08
2023-03-12T22:44:21.290Z,52.80
2023-03-12T22:46:47.849Z,53.54
2023-03-12T22:49:15.296Z,53.75
2023-03-12T22:51:41.951Z,53.14
2023-03-12T22:54:08.564Z,51.62
2023-03-12T22:56:35.215Z,52.21
2023-03-12T22:59:01.818Z,52.96
2023-03-12T23:01:28.399Z,52.26
2023-03-12T23:03:55.094Z,51.89
2023-03-12T23:06:24.304Z,51.71
2023-03-12T23:08:52.057Z,51.97
2023-03-12T23:11:19.634Z,53.03
2023-03-12T23:13:47.067Z,52.82
2023-03-12T23:16:20.078Z,52.78
2023-03-12T23:18:47.488Z,53.68
2023-03-12T23:21:20.142Z,53.77
2023-03-12T23:23:47.701Z,53.77
2023-03-12T23:26:20.675Z,53.46
2023-03-12T23:28:47.684Z,53.86
2023-03-12T23:31:16.011Z,54.49
2023-03-12T23:33:43.211Z,54.94
2023-03-12T23:36:18.860Z,54.09
2023-03-12T23:38:46.822Z,53.97
2023-03-12T23:41:19.995Z,53.11
2023-03-12T23:43:47.154Z,52.71
2023-03-12T23:46:18.303Z,51.69
2023-03-12T23:48:47.915Z,51.77
2023-03-12T23:51:36.338Z,51.74
2023-03-12T23:54:07.251Z,51.76
2023-03-12T23:56:38.945Z,51.37
2023-03-12T23:59:08.028Z,51.49
